Flight Track Log - Related Links

Times and Time Zones

All times are in EDT time to prevent confusion due to time zone crossing. See the N1096K flight status page for this flight to view local times or setup timezone preferences in your user account.

Time Position Orientation Groundspeed Altitude Reporting Facility
EDT Latitude Longitude Course Direction KTS MPH feet Rate Location/Type
06:12PM 42.8172 -85.4706 134° Southeast 134 154 2,100  Level Chicago Center
06:13PM 42.7958 -85.4247 122° Southeast 139 160 2,600 532 Climbing Chicago Center
06:14PM 42.7731 -85.3778 123° Southeast 142 163 3,200 532 Climbing Chicago Center
06:15PM 42.7528 -85.3283 119° Southeast 145 167 3,700 576 Climbing Chicago Center
06:16PM 42.7135 -85.2023 127° Southeast  Level Estimated
06:16PM 42.7253 -85.2753 125° Southeast 145 167 4,400  Level Chicago Center
06:17PM 42.6800 -85.1553 134° Southeast  Level FlightAware Approximate
06:17PM 42.7097 -85.2453 125° Southeast 144 166 4,900  Level Chicago Center
06:17PM 42.7017 -85.2306 127° Southeast 145 167 5,100 512 Climbing Chicago Center
06:18PM 42.6822 -85.1819 119° Southeast 145 167 5,600 571 Climbing Chicago Center
06:19PM 42.6572 -85.1364 127° Southeast 146 168 6,300 581 Climbing Chicago Center
06:20PM 42.6344 -85.0889 123° Southeast 146 168 6,800 339 Climbing Chicago Center
06:21PM 42.6075 -85.0397 127° Southeast 156 180 7,000 97 Climbing Chicago Center
06:22PM 42.5719 -84.9731 126° Southeast 176 203 7,000  Level Chicago Center
06:23PM 42.5425 -84.9142 124° Southeast 184 212 7,000  Level Chicago Center
06:24PM 42.5136 -84.8611 126° Southeast 180 207 7,000  Level Cleveland Center
06:25PM 42.4814 -84.7989 125° Southeast 171 197 7,000  Level Cleveland Center
06:26PM 42.4544 -84.7489 126° Southeast 169 194 7,000  Level Cleveland Center
06:27PM 42.4286 -84.6981 125° Southeast 168 193 7,000  Level Cleveland Center
06:28PM 42.3992 -84.6425 126° Southeast 162 186 7,000  Level Cleveland Center
06:29PM 42.3719 -84.5919 126° Southeast 166 191 7,000  Level Cleveland Center
06:30PM 42.3461 -84.5428 125° Southeast 165 190 7,000  Level Cleveland Center
06:31PM 42.3200 -84.4928 125° Southeast 164 189 7,000  Level Cleveland Center
06:32PM 42.2939 -84.4431 125° Southeast 163 188 7,000  Level Cleveland Center
06:33PM 42.2711 -84.4069 130° Southeast 161 185 7,000  Level Cleveland Center
06:34PM 42.2683 -84.3944 107° East 163 188 7,000 98 Level Cleveland Center
06:34PM 42.2442 -84.3547 129° Southeast 161 185 7,100  Climbing Cleveland Center
06:35PM 42.2369 -84.3361 118° Southeast 162 186 7,000 -97 Descending Cleveland Center
06:35PM 42.2192 -84.3056 128° Southeast 159 183 7,000  Level Cleveland Center
06:36PM 42.2114 -84.2883 121° Southeast 161 185 7,000  Level Cleveland Center
06:36PM 42.1919 -84.2561 129° Southeast 162 186 7,000  Level Cleveland Center
06:37PM 42.1844 -84.2386 120° Southeast 161 185 7,000  Level Cleveland Center
06:37PM 42.1667 -84.2069 127° Southeast 161 185 7,000  Level Cleveland Center
06:38PM 42.1589 -84.1911 124° Southeast 161 185 7,000  Level Cleveland Center
06:38PM 42.1394 -84.1578 128° Southeast 160 184 7,000  Level Cleveland Center
06:39PM 42.1333 -84.1425 118° Southeast 160 184 7,000  Level Cleveland Center
06:39PM 42.1122 -84.1086 130° Southeast 162 186 7,000  Level Cleveland Center
06:40PM 42.1014 -84.0839 121° Southeast 161 185 7,000  Level Cleveland Center
06:40PM 42.0869 -84.0597 129° Southeast 162 186 7,000  Level Cleveland Center
06:41PM 42.0758 -84.0347 121° Southeast 161 185 7,000  Level Cleveland Center
06:41PM 42.0597 -84.0103 132° Southeast 160 184 7,000  Level Cleveland Center
06:42PM 42.0497 -83.9875 121° Southeast 161 185 7,000  Level Cleveland Center
06:42PM 42.0325 -83.9586 129° Southeast 161 185 7,000 97 Level Cleveland Center
06:43PM 42.0233 -83.9389 122° Southeast 161 185 7,100  Climbing Cleveland Center
06:43PM 42.0072 -83.9097 127° Southeast 157 181 7,000  Descending Cleveland Center
06:44PM 41.9978 -83.8908 124° Southeast 160 184 7,100  Climbing Cleveland Center
06:44PM 41.9797 -83.8606 129° Southeast 155 178 7,000 -97 Descending Cleveland Center
06:45PM 41.9714 -83.8433 123° Southeast 160 184 7,000  Level Cleveland Center
06:45PM 41.9506 -83.8086 129° Southeast 161 185 7,000  Level Cleveland Center
06:46PM 41.9408 -83.7861 120° Southeast 160 184 7,000  Level Cleveland Center
06:46PM 41.9253 -83.7600 129° Southeast 159 183 7,000  Level Cleveland Center
06:47PM 41.9142 -83.7383 125° Southeast 160 184 7,000  Level Cleveland Center
06:48PM 41.8878 -83.6900 126° Southeast 160 184 7,000  Level Cleveland Center
06:49PM 41.8614 -83.6422 127° Southeast 160 184 7,000 48 Level Cleveland Center
06:50PM 41.8358 -83.5931 125° Southeast 160 184 7,100 48 Climbing Cleveland Center
06:51PM 41.8036 -83.5347 127° Southeast 161 185 7,100  Level Cleveland Center
06:52PM 41.7772 -83.4858 126° Southeast 161 185 7,100  Level Cleveland Center
06:53PM 41.7503 -83.4383 127° Southeast 161 185 7,100  Level Cleveland Center
06:54PM 41.7239 -83.3908 127° Southeast 161 185 7,100  Level Cleveland Center
06:55PM 41.6972 -83.3431 127° Southeast 161 185 7,100  Level Cleveland Center
06:56PM 41.6656 -83.2861 127° Southeast 160 184 7,100  Level Cleveland Center
06:57PM 41.6394 -83.2383 126° Southeast 160 184 7,100  Level Cleveland Center
06:58PM 41.6133 -83.1883 125° Southeast 161 185 7,100  Level Cleveland Center
06:59PM 41.5850 -83.1408 129° Southeast 161 185 7,100  Level Cleveland Center
07:00PM 41.5586 -83.0919 126° Southeast 162 186 7,100  Level Cleveland Center
07:01PM 41.5328 -83.0481 128° Southeast 163 188 7,100  Level Cleveland Center
07:01PM 41.5269 -83.0356 122° Southeast 162 186 7,100  Level Cleveland Center
07:02PM 41.5078 -83.0044 129° Southeast 161 185 7,100  Level Cleveland Center
07:02PM 41.5006 -82.9872 119° Southeast 161 185 7,100  Level Cleveland Center
07:03PM 41.4814 -82.9550 128° Southeast 161 185 7,100  Level Cleveland Center
07:04PM 41.4739 -82.9389 122° Southeast 161 185 7,100  Level Cleveland Center
07:04PM 41.4489 -82.9014 132° Southeast 172 198 7,100  Level Cleveland Center
07:05PM 41.4461 -82.8900 108° East 161 185 7,100  Level Cleveland Center
07:05PM 41.4206 -82.8489 130° Southeast 163 188 7,100  Level Cleveland Center
07:06PM 41.4192 -82.8417 104° East 162 186 7,100  Level Cleveland Center
07:07PM 41.3925 -82.7919 126° Southeast 162 186 7,100  Level Cleveland Center
07:07PM 41.3708 -82.7592 131° Southeast 163 188 7,100  Level Cleveland Center
07:08PM 41.3644 -82.7439 119° Southeast 162 186 7,100  Level Cleveland Center
07:08PM 41.3439 -82.7125 131° Southeast 163 188 7,100  Level Cleveland Center
07:09PM 41.3325 -82.6869 121° Southeast 163 188 7,100  Level Cleveland Center
07:09PM 41.3172 -82.6631 130° Southeast 163 188 7,100  Level Cleveland Center
07:10PM 41.3047 -82.6372 123° Southeast 163 188 7,100  Level Cleveland Center
07:10PM 41.2850 -82.6072 131° Southeast 164 189 7,100  Level Cleveland Center
07:11PM 41.2772 -82.5900 121° Southeast 163 188 7,100  Level Cleveland Center
07:11PM 41.2583 -82.5581 128° Southeast 165 190 7,100  Level Cleveland Center
07:12PM 41.2489 -82.5406 126° Southeast 165 190 7,100  Level Cleveland Center
07:12PM 41.2294 -82.5114 132° Southeast 163 188 7,100  Level Cleveland Center
07:13PM 41.2225 -82.4922 116° Southeast 164 189 7,100 -197 Level Cleveland Center
07:13PM 41.2025 -82.4622 132° Southeast 164 189 6,900 -290 Descending Cleveland Center
07:14PM 41.1936 -82.4417 120° Southeast 165 190 6,800 -444 Descending Cleveland Center
07:14PM 41.1756 -82.4158 133° Southeast 176 203 6,500 -484 Descending Cleveland Center
07:15PM 41.1622 -82.3894 124° Southeast 177 204 6,300 -393 Descending Cleveland Center
07:15PM 41.1450 -82.3633 131° Southeast 181 208 6,100 -492 Descending Cleveland Center
07:16PM 41.1275 -82.3275 123° Southeast 178 205 5,800 -500 Descending Cleveland Center
07:16PM 41.1147 -82.3081 131° Southeast 178 205 5,600 -484 Descending Cleveland Center
07:17PM 41.0981 -82.2747 124° Southeast 178 205 5,300 -448 Descending Cleveland Center
07:17PM 41.0825 -82.2500 130° Southeast 173 199 5,100 -484 Descending Cleveland Center
07:18PM 41.0678 -82.2242 127° Southeast 178 205 4,800 -448 Descending Cleveland Center
07:19PM 41.0497 -82.1972 132° Southeast 172 198 4,600 -194 Descending Cleveland Center
07:19PM 41.0386 -82.1717 120° Southeast 176 203 4,600  Level Cleveland Center

Login

Don't have an account? Register now (free) for customized features, flight alerts, and more!